Time;durP1;ratioP1;P1;durP2;ratioP2;P2;SDS_P1;SDS_P2;PMS_P1;PMS_P2;Temp;Humidity;BMP_temperature;BMP_pressure;BME280_temperature;BME280_humidity;BME280_pressure;Samples;Min_cycle;Max_cycle;Signal;HPM_P1;HPM_P2
2021/03/25 00:04:27;;;;;;;229.00;100.53;;;51.90;2227.20;;;;;;4905992;29;20028;-81
2021/03/25 00:21:52;;;;;;;89.10;49.83;;;51.70;2227.20;;;;;;4878877;29;910636;-79
2021/03/25 00:24:20;;;;;;;65.20;37.80;;;51.50;2227.20;;;;;;4924166;29;20032;-79
2021/03/25 03:17:54;;;;;;;66.05;37.25;;;0.70;2201.60;;;;;;4811242;29;20092;-82
2021/03/25 03:25:00;;;;;;;76.05;41.70;;;0.90;2201.60;;;;;;4822755;29;20045;-81
2021/03/25 03:59:15;;;;;;;44.50;27.55;;;25.60;2201.60;;;;;;4918755;29;20066;-82
2021/03/25 04:03:04;;;;;;;67.85;42.63;;;25.60;2201.60;;;;;;4886899;29;20040;-81
2021/03/25 04:13:47;;;;;;;61.70;37.33;;;0.80;2201.60;;;;;;4754374;30;20052;-81
2021/03/25 04:24:15;;;;;;;78.00;47.40;;;0.50;2201.60;;;;;;4772388;30;20112;-81
2021/03/25 04:28:19;;;;;;;98.95;54.58;;;0.40;2201.60;;;;;;4772185;30;20043;-81
2021/03/25 04:35:13;;;;;;;164.55;85.35;;;0.00;2201.60;;;;;;4719654;30;20154;-81
2021/03/25 04:38:28;;;;;;;140.70;74.22;;;0.10;2201.60;;;;;;4718842;30;20040;-81
2021/03/25 04:56:23;;;;;;;152.38;79.10;;;0.50;2201.60;;;;;;4905232;29;20052;-81
2021/03/25 05:00:05;;;;;;;142.38;75.03;;;0.40;2201.60;;;;;;4886183;29;20029;-82
2021/03/25 05:03:43;;;;;;;118.72;66.10;;;0.40;2201.60;;;;;;4809103;29;20023;-81
2021/03/25 05:07:19;;;;;;;197.52;106.13;;;0.40;2201.60;;;;;;4769430;30;20042;-81
2021/03/25 05:11:02;;;;;;;159.90;91.15;;;0.40;2201.60;;;;;;4772674;30;20047;-81
2021/03/25 05:14:46;;;;;;;67.78;40.85;;;0.50;2201.60;;;;;;4783771;30;20038;-81
2021/03/25 05:51:26;;;;;;;148.15;81.40;;;0.60;2201.60;;;;;;4939995;29;20066;-81
2021/03/25 05:54:51;;;;;;;148.40;92.38;;;0.60;2201.60;;;;;;4900710;29;20033;-82
2021/03/25 05:58:03;;;;;;;159.13;103.30;;;0.70;2201.60;;;;;;4883992;29;20057;-81
2021/03/25 06:04:50;;;;;;;149.02;95.22;;;0.70;2201.60;;;;;;4900389;29;20032;-80
2021/03/25 06:08:16;;;;;;;143.95;87.57;;;0.70;2201.60;;;;;;4882045;29;20029;-81
2021/03/25 06:11:48;;;;;;;135.48;79.15;;;0.70;2201.60;;;;;;4881798;29;20072;-81
2021/03/25 06:25:24;;;;;;;154.23;89.97;;;25.60;2201.60;;;;;;4881793;29;20101;-81
2021/03/25 06:42:50;;;;;;;216.82;95.40;;;25.90;2201.60;;;;;;4940169;29;20064;-81
2021/03/25 06:49:53;;;;;;;148.55;76.00;;;26.10;2201.60;;;;;;4918818;29;20077;-81
2021/03/25 06:53:13;;;;;;;178.40;85.90;;;26.40;2201.60;;;;;;4825489;29;20039;-81
2021/03/25 07:06:44;;;;;;;110.93;67.93;;;51.60;2227.20;;;;;;4843875;29;20059;-82
2021/03/25 09:36:35;;;;;;;78.40;55.58;;;179.60;1433.60;;;;;;4946694;28;20131;-76
2021/03/25 09:39:03;;;;;;;59.05;40.85;;;179.70;1408.00;;;;;;4933872;29;20047;-76
2021/03/25 09:41:29;;;;;;;52.42;35.75;;;179.70;1356.80;;;;;;4964093;29;20078;-77
2021/03/25 09:44:18;;;;;;;86.07;42.28;;;179.80;1356.80;;;;;;4950864;29;20031;-78
2021/03/25 09:46:54;;;;;;;37.75;22.65;;;179.90;1331.20;;;;;;4945085;29;20031;-78
2021/03/25 09:49:29;;;;;;;31.13;16.52;;;179.90;1382.40;;;;;;4943254;29;20046;-79
2021/03/25 09:52:07;;;;;;;30.88;16.25;;;180.10;1356.80;;;;;;4956693;28;20035;-79
2021/03/25 09:54:36;;;;;;;23.65;14.52;;;204.80;1356.80;;;;;;4943596;29;20658;-78
2021/03/25 09:57:36;;;;;;;29.23;18.40;;;204.90;1382.40;;;;;;4942894;29;20082;-79
2021/03/25 10:00:31;;;;;;;31.17;17.95;;;205.00;1356.80;;;;;;4902796;29;20573;-81
2021/03/25 10:03:04;;;;;;;27.08;16.27;;;205.10;1331.20;;;;;;4942101;29;20465;-78
2021/03/25 10:05:36;;;;;;;31.55;19.60;;;205.30;1331.20;;;;;;4940601;29;20090;-80
2021/03/25 10:08:22;;;;;;;50.78;33.20;;;205.30;1331.20;;;;;;4940410;29;20031;-78
2021/03/25 10:11:10;;;;;;;37.92;26.25;;;205.30;1331.20;;;;;;4939399;29;20023;-80
2021/03/25 10:13:43;;;;;;;34.35;21.70;;;205.40;1331.20;;;;;;4939595;29;20039;-82
2021/03/25 10:16:10;;;;;;;;;;;205.60;1305.60;;;;;;4939946;29;20023;-79
2021/03/25 10:18:36;;;;;;;23.73;17.35;;;205.50;1331.20;;;;;;4937781;29;19929;-80
2021/03/25 10:21:18;;;;;;;37.40;22.55;;;205.50;1331.20;;;;;;4939627;29;20489;-79
2021/03/25 10:23:50;;;;;;;28.75;17.95;;;205.70;1331.20;;;;;;4939652;29;20477;-78
2021/03/25 10:26:41;;;;;;;29.77;17.90;;;230.50;1331.20;;;;;;4939550;29;20027;-81
2021/03/25 10:29:22;;;;;;;28.67;15.88;;;230.50;1280.00;;;;;;4936680;29;20031;-78
2021/03/25 10:32:13;;;;;;;22.38;13.60;;;230.60;1254.40;;;;;;4935419;29;20023;-79
2021/03/25 10:34:44;;;;;;;46.83;26.63;;;230.80;1228.80;;;;;;4935745;28;20036;-83
2021/03/25 10:37:28;;;;;;;21.35;12.32;;;230.90;1254.40;;;;;;4934170;29;20129;-79
2021/03/25 10:40:18;;;;;;;32.13;18.42;;;230.80;1203.20;;;;;;4933658;29;20019;-82
2021/03/25 10:43:00;;;;;;;33.67;20.73;;;231.00;1280.00;;;;;;4935278;29;20532;-81
2021/03/25 10:45:47;;;;;;;36.30;21.15;;;231.30;1280.00;;;;;;4943849;28;20119;-85
2021/03/25 10:48:45;;;;;;;20.40;12.88;;;231.30;1228.80;;;;;;4928239;29;20028;-88
2021/03/25 10:51:18;;;;;;;24.42;14.05;;;231.30;1228.80;;;;;;4935538;29;20031;-81
2021/03/25 10:53:51;;;;;;;18.02;11.25;;;231.30;1203.20;;;;;;4937150;29;20511;-89
2021/03/25 10:56:38;;;;;;;18.38;10.77;;;256.00;1152.00;;;;;;4948727;28;20099;-79
2021/03/25 10:59:07;;;;;;;28.08;19.17;;;256.20;1152.00;;;;;;4935318;29;20492;-77
2021/03/25 11:01:35;;;;;;;33.00;19.25;;;256.60;1177.60;;;;;;4934956;29;20047;-82
2021/03/25 11:04:14;;;;;;;17.88;11.98;;;256.90;1152.00;;;;;;4934621;29;20474;-83
2021/03/25 11:06:39;;;;;;;39.60;22.95;;;256.90;1126.40;;;;;;4933256;29;20488;-84
2021/03/25 11:09:27;;;;;;;42.60;24.38;;;281.90;1177.60;;;;;;4935918;29;20032;-82
2021/03/25 11:12:08;;;;;;;26.77;15.77;;;282.00;1152.00;;;;;;4950142;28;20498;-86
2021/03/25 11:14:40;;;;;;;25.25;15.93;;;282.20;1152.00;;;;;;4931647;29;20039;-86
2021/03/25 11:17:24;;;;;;;24.45;15.43;;;282.20;1152.00;;;;;;4935182;28;20028;-85
2021/03/25 11:20:02;;;;;;;21.27;13.65;;;307.20;1152.00;;;;;;4949465;29;20035;-84
2021/03/25 11:22:31;;;;;;;25.58;14.18;;;282.20;1152.00;;;;;;4950101;28;20023;-86
2021/03/25 11:25:04;;;;;;;24.13;15.35;;;281.80;1100.80;;;;;;4933421;29;20025;-85
2021/03/25 11:27:30;;;;;;;23.00;13.93;;;282.30;1126.40;;;;;;4934666;29;20031;-85
2021/03/25 11:30:27;;;;;;;28.50;17.42;;;307.20;1152.00;;;;;;4933384;29;20029;-84
2021/03/25 11:32:54;;;;;;;29.33;19.23;;;307.80;1126.40;;;;;;4933648;29;20032;-85
2021/03/25 11:35:35;;;;;;;30.92;20.33;;;308.10;1126.40;;;;;;4933397;29;20385;-86
2021/03/25 11:38:19;;;;;;;28.33;17.88;;;333.00;1126.40;;;;;;4919351;29;20055;-85
2021/03/25 11:40:47;;;;;;;23.75;15.63;;;307.90;1075.20;;;;;;4930348;29;20556;-83
2021/03/25 11:43:18;;;;;;;19.27;11.25;;;307.80;1100.80;;;;;;4933919;29;20036;-84
2021/03/25 11:45:49;;;;;;;23.42;14.52;;;307.20;1100.80;;;;;;4937881;28;20027;-84
2021/03/25 11:48:31;;;;;;;30.35;18.23;;;282.10;1100.80;;;;;;4933914;29;20074;-81
2021/03/25 11:51:16;;;;;;;22.55;14.82;;;281.70;1152.00;;;;;;4935036;29;20055;-83
2021/03/25 11:53:53;;;;;;;40.92;23.30;;;256.80;1075.20;;;;;;4937031;29;20170;-82
2021/03/25 11:56:37;;;;;;;23.27;14.75;;;281.70;1126.40;;;;;;4936208;29;20023;-85
2021/03/25 11:59:20;;;;;;;34.47;19.77;;;256.70;1075.20;;;;;;4931559;29;20397;-87
2021/03/25 12:01:46;;;;;;;;;;;256.50;1126.40;;;;;;4941926;29;20037;-87
2021/03/25 12:04:15;;;;;;;21.17;12.85;;;256.30;1126.40;;;;;;4941053;29;20001;-87
2021/03/25 12:07:02;;;;;;;13.75;9.00;;;256.20;1126.40;;;;;;4941284;29;20094;-80
2021/03/25 12:09:31;;;;;;;35.05;22.45;;;256.00;1152.00;;;;;;4933396;29;20031;-85
2021/03/25 12:11:59;;;;;;;51.85;34.03;;;231.30;1152.00;;;;;;4926617;29;20036;-84
2021/03/25 12:14:25;;;;;;;37.90;24.35;;;231.20;1126.40;;;;;;4941260;29;20063;-86
2021/03/25 12:17:00;;;;;;;31.95;22.23;;;256.50;1152.00;;;;;;4941688;29;20111;-87
2021/03/25 12:19:27;;;;;;;22.42;14.02;;;256.10;1152.00;;;;;;4940177;29;20027;-82
2021/03/25 12:21:53;;;;;;;31.65;23.02;;;256.10;1152.00;;;;;;4940653;29;20043;-87
2021/03/25 12:24:19;;;;;;;29.95;19.92;;;231.30;1152.00;;;;;;4940754;29;20155;-80
2021/03/25 12:26:45;;;;;;;45.50;25.20;;;256.30;1177.60;;;;;;4940275;29;20034;-80
2021/03/25 12:29:12;;;;;;;29.42;17.02;;;256.20;1228.80;;;;;;4940776;29;20024;-83
2021/03/25 12:31:43;;;;;;;30.08;17.95;;;256.20;1254.40;;;;;;4940647;29;20027;-85
2021/03/25 12:34:13;;;;;;;79.35;39.72;;;256.10;1177.60;;;;;;4940490;29;20043;-87
2021/03/25 12:36:39;;;;;;;90.28;49.55;;;256.00;1203.20;;;;;;4932785;29;20027;-85
2021/03/25 12:39:08;;;;;;;93.22;46.45;;;256.00;1177.60;;;;;;4930243;29;20024;-87
2021/03/25 12:41:41;;;;;;;138.38;65.75;;;256.10;1177.60;;;;;;4931581;29;20441;-86
2021/03/25 12:44:08;;;;;;;157.43;76.80;;;256.00;1228.80;;;;;;4940500;29;20027;-82
2021/03/25 12:46:34;;;;;;;63.75;35.03;;;256.10;1228.80;;;;;;4940346;29;20078;-84
2021/03/25 12:49:00;;;;;;;57.25;30.40;;;256.00;1203.20;;;;;;4940078;29;20023;-79
2021/03/25 12:51:26;;;;;;;44.97;24.88;;;256.00;1280.00;;;;;;4956479;29;20031;-80
2021/03/25 12:53:53;;;;;;;25.77;15.70;;;231.30;1280.00;;;;;;4940261;29;20532;-81
2021/03/25 12:56:26;;;;;;;38.42;21.38;;;231.30;1177.60;;;;;;4939759;29;20035;-82
2021/03/25 12:58:53;;;;;;;49.10;24.63;;;231.20;1203.20;;;;;;4940403;29;20393;-77
2021/03/25 13:01:22;;;;;;;68.72;36.60;;;231.20;1305.60;;;;;;4940090;29;20027;-87
2021/03/25 13:03:49;;;;;;;77.35;36.15;;;231.20;1305.60;;;;;;4940779;28;20031;-85
2021/03/25 13:06:16;;;;;;;70.55;38.85;;;231.20;1305.60;;;;;;4949317;28;20029;-86
2021/03/25 13:08:43;;;;;;;52.92;32.28;;;231.30;1254.40;;;;;;4950315;28;20362;-83
2021/03/25 13:11:12;;;;;;;31.98;17.98;;;256.00;1203.20;;;;;;4937464;29;20370;-86
2021/03/25 13:13:39;;;;;;;59.03;37.28;;;231.30;1203.20;;;;;;4945672;28;20035;-85
2021/03/25 13:16:06;;;;;;;52.63;34.03;;;256.20;1254.40;;;;;;4946305;28;20026;-85
2021/03/25 13:18:32;;;;;;;57.28;35.90;;;256.70;1254.40;;;;;;4935688;29;20035;-85
2021/03/25 13:20:58;;;;;;;61.97;35.53;;;256.30;1254.40;;;;;;4930765;29;20031;-86
2021/03/25 13:23:25;;;;;;;60.22;37.47;;;256.40;1280.00;;;;;;4939734;29;20038;-86
2021/03/25 13:25:51;;;;;;;26.25;14.70;;;256.40;1280.00;;;;;;4939913;29;20027;-86
2021/03/25 13:28:18;;;;;;;35.83;19.52;;;256.30;1203.20;;;;;;4939010;29;20038;-86
2021/03/25 13:30:44;;;;;;;53.70;32.85;;;256.30;1177.60;;;;;;4939806;29;20055;-84
2021/03/25 13:33:11;;;;;;;91.88;56.58;;;256.60;1254.40;;;;;;4949694;28;20058;-86
2021/03/25 13:35:39;;;;;;;40.70;24.77;;;282.40;1228.80;;;;;;4958163;28;20030;-85
2021/03/25 13:38:05;;;;;;;37.10;23.77;;;307.60;1152.00;;;;;;4958196;28;20053;-84
2021/03/25 13:40:35;;;;;;;30.75;19.63;;;332.80;1203.20;;;;;;4958747;28;20031;-86
2021/03/25 13:43:01;;;;;;;22.15;13.77;;;333.20;1126.40;;;;;;4944524;29;20099;-87
2021/03/25 13:45:28;;;;;;;40.85;34.70;;;333.70;1126.40;;;;;;4939424;29;20162;-86
2021/03/25 13:47:54;;;;;;;40.47;25.63;;;358.50;1100.80;;;;;;4939481;29;20385;-84
2021/03/25 13:50:24;;;;;;;53.58;30.77;;;333.30;1049.60;;;;;;4956436;29;20032;-87
2021/03/25 13:52:53;;;;;;;34.17;16.63;;;308.00;1100.80;;;;;;4956447;29;20027;-86
2021/03/25 13:55:25;;;;;;;27.90;16.63;;;307.30;1126.40;;;;;;4938872;29;20047;-86
2021/03/25 13:57:51;;;;;;;33.20;20.45;;;282.30;1100.80;;;;;;4939105;29;20028;-87
2021/03/25 14:00:18;;;;;;;23.08;15.85;;;282.30;1126.40;;;;;;4939231;29;20122;-85
2021/03/25 14:02:44;;;;;;;41.13;26.33;;;282.10;1126.40;;;;;;4938963;29;20031;-86
2021/03/25 14:05:10;;;;;;;43.92;27.90;;;282.10;1126.40;;;;;;4954388;29;20488;-86
2021/03/25 14:07:36;;;;;;;39.58;26.48;;;307.60;1152.00;;;;;;4940415;28;20551;-87
2021/03/25 14:10:04;;;;;;;24.52;16.08;;;307.50;1152.00;;;;;;4939060;29;20039;-88
2021/03/25 14:12:30;;;;;;;14.43;10.68;;;333.00;1126.40;;;;;;4931618;29;20417;-88
2021/03/25 14:14:56;;;;;;;43.30;28.30;;;333.30;1075.20;;;;;;4939888;29;20067;-86
2021/03/25 14:17:22;;;;;;;18.90;8.98;;;333.50;1049.60;;;;;;4940334;29;20067;-89
2021/03/25 14:19:47;;;;;;;14.23;8.32;;;333.70;1075.20;;;;;;4939888;29;20035;-88
2021/03/25 14:22:13;;;;;;;13.15;10.00;;;358.60;1049.60;;;;;;4940027;29;20035;-89
2021/03/25 14:24:40;;;;;;;16.40;9.55;;;358.70;998.40;;;;;;4939769;29;20035;-88
2021/03/25 14:27:06;;;;;;;12.98;8.60;;;358.90;1049.60;;;;;;4939812;29;20031;-86
2021/03/25 14:29:33;;;;;;;11.80;8.23;;;358.90;998.40;;;;;;4939768;29;20031;-88
2021/03/25 14:31:58;;;;;;;10.73;7.55;;;358.60;998.40;;;;;;4939692;29;20034;-88
2021/03/25 14:34:25;;;;;;;14.75;8.45;;;358.70;1024.00;;;;;;4935561;29;20040;-88
2021/03/25 14:36:50;;;;;;;13.35;7.80;;;358.70;1024.00;;;;;;4920955;29;20507;-87
2021/03/25 14:39:16;;;;;;;13.60;8.43;;;358.90;998.40;;;;;;4919509;29;20059;-81
2021/03/25 14:41:42;;;;;;;23.10;15.10;;;358.80;1024.00;;;;;;4937636;29;20141;-88
2021/03/25 14:44:08;;;;;;;28.45;17.75;;;359.00;1024.00;;;;;;4920623;29;20031;-88
2021/03/25 14:46:34;;;;;;;19.70;13.27;;;359.00;998.40;;;;;;4920305;29;20027;-88
2021/03/25 14:48:59;;;;;;;20.30;12.95;;;358.90;998.40;;;;;;4927389;29;20027;-88
2021/03/25 14:51:26;;;;;;;19.98;12.57;;;358.90;972.80;;;;;;4938345;29;20023;-88
2021/03/25 14:53:52;;;;;;;26.27;15.35;;;358.80;998.40;;;;;;4938935;29;20161;-88
2021/03/25 14:56:20;;;;;;;28.92;18.25;;;358.80;998.40;;;;;;4937373;29;20035;-88
2021/03/25 14:58:46;;;;;;;17.33;11.43;;;358.50;998.40;;;;;;4939136;29;20027;-87
2021/03/25 15:01:12;;;;;;;24.73;14.45;;;358.40;1024.00;;;;;;4938658;29;20038;-88
2021/03/25 15:03:38;;;;;;;14.70;8.25;;;333.70;1024.00;;;;;;4939479;29;20039;-88
2021/03/25 15:06:04;;;;;;;22.25;11.48;;;333.50;1024.00;;;;;;4939106;29;20528;-87
2021/03/25 15:08:31;;;;;;;16.92;8.07;;;333.40;1075.20;;;;;;4939331;29;20065;-87
2021/03/25 15:10:59;;;;;;;13.23;9.10;;;333.10;1024.00;;;;;;4939059;29;20031;-88
2021/03/25 15:13:26;;;;;;;12.15;7.05;;;332.80;1100.80;;;;;;4938988;29;20094;-87
2021/03/25 15:15:52;;;;;;;26.40;16.40;;;307.80;1049.60;;;;;;4939474;29;20035;-88
2021/03/25 15:18:20;;;;;;;23.05;13.68;;;307.60;1075.20;;;;;;4956107;29;20023;-87
2021/03/25 15:20:47;;;;;;;22.35;13.25;;;307.50;1075.20;;;;;;4939093;29;20070;-87
2021/03/25 15:23:21;;;;;;;37.25;22.95;;;307.40;1100.80;;;;;;4937956;29;20030;-87
2021/03/25 15:25:47;;;;;;;32.35;20.98;;;282.50;1075.20;;;;;;4939249;29;20031;-88
2021/03/25 15:28:13;;;;;;;16.15;9.95;;;282.30;1075.20;;;;;;4937523;29;20082;-89
2021/03/25 15:30:39;;;;;;;38.22;23.08;;;282.10;1049.60;;;;;;4938684;29;20440;-88
2021/03/25 15:33:06;;;;;;;38.25;23.10;;;282.10;1100.80;;;;;;4938829;29;20028;-88
2021/03/25 15:35:45;;;;;;;17.85;12.13;;;282.10;1126.40;;;;;;4938546;29;20481;-88
2021/03/25 15:38:18;;;;;;;22.02;13.73;;;282.00;1100.80;;;;;;4938675;29;20051;-89
2021/03/25 15:40:46;;;;;;;24.88;17.65;;;281.80;1100.80;;;;;;4939470;29;20031;-89
2021/03/25 15:43:13;;;;;;;20.25;14.00;;;281.80;1152.00;;;;;;4938734;29;20027;-87
2021/03/25 15:45:39;;;;;;;32.67;21.58;;;281.80;1126.40;;;;;;4938601;29;20028;-88
2021/03/25 15:48:08;;;;;;;46.80;31.85;;;281.80;1177.60;;;;;;4936393;28;20034;-86
2021/03/25 15:50:34;;;;;;;40.25;25.55;;;256.90;1100.80;;;;;;4938728;29;20030;-87
2021/03/25 15:53:00;;;;;;;59.22;34.97;;;281.60;1177.60;;;;;;4938822;29;20366;-87
2021/03/25 15:55:29;;;;;;;49.90;30.15;;;281.60;1177.60;;;;;;4937175;29;20039;-86
2021/03/25 15:57:59;;;;;;;31.65;18.63;;;281.60;1177.60;;;;;;4938594;29;20031;-88
2021/03/25 16:00:27;;;;;;;51.22;31.73;;;256.90;1152.00;;;;;;4938756;29;20114;-87
2021/03/25 16:02:53;;;;;;;29.30;18.27;;;256.90;1126.40;;;;;;4938552;29;20031;-87
2021/03/25 16:05:21;;;;;;;18.65;13.00;;;256.80;1126.40;;;;;;4939033;29;20122;-87
2021/03/25 16:07:47;;;;;;;16.92;11.15;;;256.80;1152.00;;;;;;4938720;29;20031;-88
2021/03/25 16:10:14;;;;;;;13.68;9.25;;;256.60;1126.40;;;;;;4938642;29;20033;-87
2021/03/25 16:12:40;;;;;;;24.05;17.27;;;282.20;1177.60;;;;;;4938382;29;20027;-87
2021/03/25 16:15:12;;;;;;;20.67;13.68;;;256.40;1152.00;;;;;;4938462;29;20114;-89
2021/03/25 16:17:38;;;;;;;19.83;12.85;;;256.40;1177.60;;;;;;4938568;29;20050;-87
2021/03/25 16:20:05;;;;;;;23.45;16.02;;;256.30;1177.60;;;;;;4938611;29;20477;-88
2021/03/25 16:22:32;;;;;;;14.45;10.02;;;256.30;1177.60;;;;;;4939117;29;20147;-89
2021/03/25 16:24:58;;;;;;;26.77;16.63;;;256.20;1152.00;;;;;;4939098;29;20050;-88
2021/03/25 16:27:24;;;;;;;24.73;16.70;;;256.20;1203.20;;;;;;4938440;29;20386;-89
2021/03/25 16:29:49;;;;;;;31.88;21.65;;;256.10;1203.20;;;;;;4938406;29;20027;-87
2021/03/25 16:32:15;;;;;;;47.55;29.52;;;256.10;1203.20;;;;;;4938285;29;20093;-88
2021/03/25 16:34:41;;;;;;;33.35;20.88;;;256.00;1228.80;;;;;;4938250;29;20047;-88
2021/03/25 16:37:07;;;;;;;22.95;16.63;;;256.00;1228.80;;;;;;4938548;29;20257;-88
2021/03/25 16:39:33;;;;;;;22.83;14.32;;;231.30;1228.80;;;;;;4938352;29;20027;-88
2021/03/25 16:41:59;;;;;;;29.58;20.17;;;231.30;1203.20;;;;;;4938111;28;20027;-88
2021/03/25 16:44:28;;;;;;;97.75;60.72;;;231.20;1203.20;;;;;;4941522;29;20038;-88
2021/03/25 16:46:55;;;;;;;88.68;54.92;;;231.10;1203.20;;;;;;4941749;29;20024;-88
2021/03/25 16:49:21;;;;;;;57.40;28.73;;;231.10;1203.20;;;;;;4941892;29;20082;-89
2021/03/25 16:51:47;;;;;;;129.65;59.25;;;231.10;1228.80;;;;;;4941996;29;20023;-87
2021/03/25 16:54:13;;;;;;;152.80;70.10;;;231.00;1280.00;;;;;;4940620;29;20125;-88
2021/03/25 16:56:39;;;;;;;188.90;79.10;;;230.90;1305.60;;;;;;4941332;29;20118;-86
2021/03/25 16:59:08;;;;;;;127.50;56.08;;;230.80;1356.80;;;;;;4940909;29;20023;-87
2021/03/25 17:01:34;;;;;;;83.20;40.15;;;230.60;1356.80;;;;;;4941281;29;20062;-87
2021/03/25 17:07:34;;;;;;;91.07;47.05;;;230.50;1356.80;;;;;;4958648;29;20051;-87
2021/03/25 17:17:21;;;;;;;91.82;52.78;;;205.70;1382.40;;;;;;4958758;29;20038;-86
2021/03/25 17:41:29;;;;;;;124.70;60.88;;;205.30;1382.40;;;;;;4963195;28;20049;-80
2021/03/25 17:44:20;;;;;;;81.60;42.65;;;205.70;1408.00;;;;;;4960672;29;20074;-81
2021/03/25 17:47:11;;;;;;;113.53;50.78;;;205.20;1433.60;;;;;;4943821;29;20027;-81
2021/03/25 17:49:37;;;;;;;145.32;61.42;;;205.20;1433.60;;;;;;4946929;29;20042;-83
2021/03/25 17:52:05;;;;;;;105.85;51.17;;;205.10;1459.20;;;;;;4951542;29;20031;-79
2021/03/25 17:54:34;;;;;;;116.30;57.92;;;205.00;1433.60;;;;;;4954880;29;20023;-80
2021/03/25 17:57:02;;;;;;;151.70;65.30;;;204.80;1484.80;;;;;;4957434;29;20031;-84
2021/03/25 18:00:16;;;;;;;133.20;75.53;;;180.10;1536.00;;;;;;4953165;29;20043;-83
2021/03/25 18:02:43;;;;;;;172.18;96.78;;;179.90;1561.60;;;;;;4957029;29;20038;-83
2021/03/25 18:05:10;;;;;;;178.02;103.07;;;179.80;1612.80;;;;;;4939779;29;20043;-82
2021/03/25 18:08:04;;;;;;;131.43;78.97;;;179.80;1612.80;;;;;;4939947;29;20066;-84
2021/03/25 18:10:49;;;;;;;98.50;59.08;;;179.80;1638.40;;;;;;4939930;29;20027;-81
2021/03/25 18:14:12;;;;;;;100.00;56.88;;;179.90;1587.20;;;;;;4936896;29;20397;-83
2021/03/25 18:17:21;;;;;;;115.68;62.10;;;179.90;1638.40;;;;;;4932684;29;20039;-83
2021/03/25 18:21:02;;;;;;;103.38;58.47;;;179.80;1612.80;;;;;;4948966;29;20031;-83
2021/03/25 18:23:28;;;;;;;117.60;67.32;;;179.70;1638.40;;;;;;4938787;29;20026;-74
2021/03/25 18:25:55;;;;;;;143.43;84.80;;;179.60;1715.20;;;;;;4934270;29;20444;-77
2021/03/25 18:28:26;;;;;;;151.15;85.13;;;179.50;1664.00;;;;;;4935308;29;20386;-78
2021/03/25 18:30:52;;;;;;;152.43;89.57;;;179.60;1638.40;;;;;;4932659;29;20059;-80
2021/03/25 18:33:20;;;;;;;164.13;96.95;;;179.50;1689.60;;;;;;4934465;29;20031;-78
2021/03/25 18:35:49;;;;;;;200.63;128.88;;;179.50;1740.80;;;;;;4936667;29;20053;-78
2021/03/25 18:38:18;;;;;;;171.63;103.60;;;179.40;1792.00;;;;;;4937180;29;20069;-79
2021/03/25 18:40:44;;;;;;;135.77;78.57;;;179.40;1817.60;;;;;;4937920;29;20097;-80
2021/03/25 18:43:11;;;;;;;119.07;61.13;;;179.40;1792.00;;;;;;4938103;29;20445;-81
2021/03/25 18:45:40;;;;;;;81.70;48.33;;;179.40;1817.60;;;;;;4938316;29;20393;-78
2021/03/25 18:48:08;;;;;;;116.45;62.70;;;179.30;1868.80;;;;;;4937893;29;20382;-78
2021/03/25 18:50:35;;;;;;;221.18;133.93;;;154.50;1894.40;;;;;;4938148;29;20023;-80
2021/03/25 18:53:04;;;;;;;213.90;132.18;;;154.50;1868.80;;;;;;4934273;29;20030;-78
2021/03/25 18:55:30;;;;;;;164.98;98.07;;;154.50;1920.00;;;;;;4923004;29;20423;-78
2021/03/25 18:57:56;;;;;;;139.82;69.97;;;154.40;1894.40;;;;;;4931912;29;20078;-78
2021/03/25 19:00:33;;;;;;;224.60;124.95;;;154.30;1868.80;;;;;;4935990;29;20035;-78
2021/03/25 19:02:59;;;;;;;134.40;66.95;;;154.20;1920.00;;;;;;4936523;29;20129;-78
2021/03/25 19:05:26;;;;;;;132.07;76.28;;;154.20;1920.00;;;;;;4937671;29;20505;-78
2021/03/25 19:07:52;;;;;;;130.18;71.50;;;154.30;1894.40;;;;;;4939068;29;20050;-77
2021/03/25 19:10:28;;;;;;;280.40;175.80;;;154.30;1945.60;;;;;;4940039;29;20023;-78
2021/03/25 19:27:05;;;;;;;275.10;175.25;;;153.90;2099.20;;;;;;4941186;29;20055;-81
2021/03/25 19:40:31;;;;;;;230.18;148.32;;;153.60;2252.80;;;;;;5037026;23;20043;-80
2021/03/25 19:43:02;;;;;;;193.80;127.05;;;153.60;2252.80;;;;;;4941327;29;20500;-77
2021/03/25 19:45:29;;;;;;;190.43;125.32;;;153.60;2176.00;;;;;;4956874;29;20110;-77
2021/03/25 19:48:24;;;;;;;205.10;132.45;;;153.60;2227.20;;;;;;4957933;29;20007;-79
2021/03/25 19:51:33;;;;;;;206.52;131.38;;;179.50;2176.00;;;;;;4925507;28;20023;-79
2021/03/25 19:54:09;;;;;;;187.05;117.28;;;153.60;2252.80;;;;;;4978001;29;20015;-80
2021/03/25 19:57:30;;;;;;;307.70;193.93;;;153.70;2201.60;;;;;;4958535;29;20473;-81
2021/03/25 20:00:11;;;;;;;365.27;231.95;;;153.70;2252.80;;;;;;4974629;29;20036;-81
2021/03/25 20:02:53;;;;;;;338.70;219.23;;;128.90;2227.20;;;;;;4972626;28;20083;-80
2021/03/25 20:05:21;;;;;;;;;;;128.90;2227.20;;;;;;4956348;29;20030;-80
2021/03/25 20:08:37;;;;;;;254.68;162.60;;;128.70;2227.20;;;;;;4977833;28;19903;-80
2021/03/25 20:11:55;;;;;;;278.30;174.75;;;128.60;2176.00;;;;;;4921682;28;20027;-79
2021/03/25 20:15:10;;;;;;;292.45;177.10;;;128.70;2252.80;;;;;;4923456;29;20048;-78
2021/03/25 20:18:29;;;;;;;264.88;163.43;;;128.50;2252.80;;;;;;4920484;29;20024;-79
2021/03/25 20:20:59;;;;;;;259.95;154.77;;;128.40;2252.80;;;;;;4914163;29;20038;-76
2021/03/25 20:23:31;;;;;;;132.60;84.50;;;128.40;2252.80;;;;;;4898762;29;20025;-76
2021/03/25 20:25:57;;;;;;;148.20;95.25;;;128.40;2227.20;;;;;;4901391;29;20088;-77
2021/03/25 20:28:23;;;;;;;155.48;97.13;;;128.40;2252.80;;;;;;4899169;29;20037;-74
2021/03/25 20:30:54;;;;;;;140.68;78.13;;;128.40;2252.80;;;;;;4899974;29;20033;-75
2021/03/25 20:33:21;;;;;;;160.70;99.05;;;128.40;2227.20;;;;;;4900567;29;20119;-75
2021/03/25 20:35:47;;;;;;;118.60;78.45;;;128.30;2252.80;;;;;;4900556;29;20105;-75
2021/03/25 20:38:13;;;;;;;98.55;58.35;;;128.20;2252.80;;;;;;4900585;29;20456;-77
2021/03/25 20:40:39;;;;;;;90.65;55.35;;;128.20;2252.80;;;;;;4900706;29;20032;-75
2021/03/25 20:43:05;;;;;;;96.22;59.08;;;128.30;2252.80;;;;;;4884676;29;20042;-76
2021/03/25 20:45:38;;;;;;;118.78;68.65;;;128.20;2252.80;;;;;;4900275;29;20055;-76
2021/03/25 20:48:04;;;;;;;304.65;188.93;;;128.20;2252.80;;;;;;4884878;29;20493;-77
2021/03/25 20:50:30;;;;;;;258.13;161.43;;;128.20;2252.80;;;;;;4906963;29;20107;-76
2021/03/25 20:52:56;;;;;;;298.33;180.05;;;128.10;2252.80;;;;;;4911033;29;20085;-76
2021/03/25 20:55:31;;;;;;;357.05;222.23;;;128.20;2252.80;;;;;;4883423;29;20060;-76
2021/03/25 20:57:58;;;;;;;246.77;149.50;;;128.10;2252.80;;;;;;4899475;29;20115;-75
2021/03/25 21:00:30;;;;;;;203.80;122.35;;;128.00;2252.80;;;;;;4902272;29;20111;-76
2021/03/25 21:02:56;;;;;;;230.65;125.25;;;103.30;2227.20;;;;;;4941858;29;20565;-75
2021/03/25 21:05:30;;;;;;;228.13;125.15;;;103.30;2227.20;;;;;;4942406;29;20062;-76
2021/03/25 21:07:57;;;;;;;244.93;147.13;;;103.20;2227.20;;;;;;4942010;29;20038;-76
2021/03/25 21:10:24;;;;;;;245.27;137.77;;;103.20;2227.20;;;;;;4958815;29;20028;-77
2021/03/25 21:12:51;;;;;;;307.00;164.55;;;103.10;2227.20;;;;;;4959384;29;20038;-75
2021/03/25 21:16:14;;;;;;;359.23;186.48;;;103.20;2227.20;;;;;;4965825;29;20078;-79
2021/03/25 21:19:06;;;;;;;;;;;103.00;2227.20;;;;;;4981277;28;20030;-81
2021/03/25 21:31:30;;;;;;;204.52;123.65;;;102.80;2227.20;;;;;;4980839;28;20063;-81
2021/03/25 21:34:12;;;;;;;200.68;119.55;;;102.70;2227.20;;;;;;4958894;29;20015;-81
2021/03/25 21:36:38;;;;;;;344.97;176.40;;;102.70;2227.20;;;;;;4947133;29;20031;-80
2021/03/25 21:39:04;;;;;;;232.65;134.20;;;102.60;2227.20;;;;;;4943542;29;20352;-80
2021/03/25 21:41:30;;;;;;;209.20;115.80;;;102.60;2227.20;;;;;;4943823;29;20031;-79
2021/03/25 21:43:56;;;;;;;243.90;134.57;;;102.60;2227.20;;;;;;4943999;29;20382;-79
2021/03/25 21:46:23;;;;;;;210.02;115.10;;;102.70;2227.20;;;;;;4945334;29;20377;-79
2021/03/25 21:48:50;;;;;;;223.32;127.00;;;102.70;2227.20;;;;;;4943908;29;20030;-80
2021/03/25 21:51:17;;;;;;;145.60;85.40;;;102.60;2227.20;;;;;;4946859;29;20023;-76
2021/03/25 21:53:57;;;;;;;432.33;280.27;;;102.60;2227.20;;;;;;4945991;29;20035;-78